Metar Aviation Weather Data KPWM

75°F Temp
66°F Dewpoint
% Humidity
Temperature
9 MPH
14 KM/H
8 KTS
180°
Due South

Wind Speed
Partly Cloudy
Conditions
Pressure 1006.82 (hPa) - 29.73 (in)
Visibility 9.9 (mi) - 16 (km)

Current Conditions
KPWM
Metar :KPWM 211451Z 18008KT 10SM FEW120 SCT250 24/19 A2973 RMK AO2 SLP067 T02390189 56011
Mon 21st June 10:51 am

  Metar Aviation API Data Provided by https://www.checkwx.com/ PHP scripts by weather34.com ©2021